Time;durP1;ratioP1;P1;durP2;ratioP2;P2;SDS_P1;SDS_P2;PMS_P1;PMS_P2;Temp;Humidity;BMP_temperature;BMP_pressure;BME280_temperature;BME280_humidity;BME280_pressure;Samples;Min_cycle;Max_cycle;Signal;HPM_P1;HPM_P2
2020/12/27 00:00:10;;;;;;;1.07;0.93;;;6.30;84.10;;;;;;5035740;28;20484;-82
2020/12/27 00:02:36;;;;;;;1.10;1.00;;;6.30;83.90;;;;;;5035580;28;20451;-82
2020/12/27 00:05:04;;;;;;;1.20;1.10;;;6.30;83.90;;;;;;5036143;28;20454;-82
2020/12/27 00:07:31;;;;;;;0.97;0.87;;;6.30;84.10;;;;;;5035756;28;20569;-83
2020/12/27 00:09:57;;;;;;;2.07;1.37;;;6.30;84.10;;;;;;5036261;28;20454;-82
2020/12/27 00:12:23;;;;;;;1.93;0.77;;;6.30;84.30;;;;;;5035924;28;20458;-82
2020/12/27 00:14:49;;;;;;;0.70;0.70;;;6.30;84.10;;;;;;5035569;28;20460;-82
2020/12/27 00:17:16;;;;;;;1.10;0.83;;;6.20;83.90;;;;;;5035277;28;21042;-82
2020/12/27 00:19:42;;;;;;;1.07;0.97;;;6.30;84.00;;;;;;5035640;28;20474;-82
2020/12/27 00:22:09;;;;;;;1.10;1.00;;;6.30;83.80;;;;;;5035667;28;20447;-82
2020/12/27 00:24:36;;;;;;;1.73;0.83;;;6.20;83.70;;;;;;5035369;28;20964;-82
2020/12/27 00:27:02;;;;;;;0.90;0.90;;;6.20;83.60;;;;;;5035410;28;20478;-82
2020/12/27 00:29:29;;;;;;;0.83;0.70;;;6.30;83.90;;;;;;5035406;28;20473;-82
2020/12/27 00:31:56;;;;;;;1.57;1.10;;;6.30;83.70;;;;;;5035572;28;20455;-82
2020/12/27 00:34:24;;;;;;;1.63;1.00;;;6.30;84.20;;;;;;5035156;28;20427;-83
2020/12/27 00:36:51;;;;;;;3.97;1.00;;;6.20;83.90;;;;;;5035405;28;20479;-83
2020/12/27 00:39:21;;;;;;;1.40;1.20;;;6.20;84.10;;;;;;5035322;28;20478;-82
2020/12/27 00:41:48;;;;;;;1.97;1.13;;;6.20;84.10;;;;;;5034776;28;20588;-82
2020/12/27 00:44:16;;;;;;;2.60;1.30;;;6.20;84.20;;;;;;5035189;28;20461;-82
2020/12/27 00:46:48;;;;;;;1.80;1.17;;;6.30;84.10;;;;;;5034914;28;20467;-82
2020/12/27 00:49:14;;;;;;;2.90;1.37;;;6.30;83.80;;;;;;5035068;28;20476;-82
2020/12/27 00:51:40;;;;;;;3.13;2.83;;;6.30;83.70;;;;;;5034907;28;20487;-82
2020/12/27 00:54:07;;;;;;;1.43;1.10;;;6.30;83.70;;;;;;5035074;28;20792;-82
2020/12/27 00:56:33;;;;;;;1.40;1.20;;;6.30;83.80;;;;;;5035051;28;20462;-82
2020/12/27 00:59:00;;;;;;;1.17;0.90;;;6.20;83.50;;;;;;5035069;28;20482;-82
2020/12/27 01:01:26;;;;;;;1.73;0.40;;;6.20;83.30;;;;;;5035009;28;20450;-83
2020/12/27 01:03:53;;;;;;;1.13;0.70;;;6.20;83.20;;;;;;5035094;28;20454;-82
2020/12/27 01:06:22;;;;;;;0.60;0.60;;;6.20;83.20;;;;;;5034903;28;20529;-83
2020/12/27 01:08:48;;;;;;;0.57;0.47;;;6.20;83.40;;;;;;5034969;28;20446;-82
2020/12/27 01:11:15;;;;;;;1.90;0.90;;;6.20;83.10;;;;;;5034890;28;20439;-82
2020/12/27 01:13:41;;;;;;;0.60;0.53;;;6.20;83.20;;;;;;5034781;28;20829;-82
2020/12/27 01:16:11;;;;;;;2.50;0.57;;;6.20;82.90;;;;;;5034455;28;20855;-82
2020/12/27 01:18:38;;;;;;;0.73;0.73;;;6.10;82.90;;;;;;5035028;28;20494;-83
2020/12/27 01:21:04;;;;;;;0.80;0.80;;;6.10;83.10;;;;;;5035440;28;20446;-84
2020/12/27 01:23:30;;;;;;;0.90;0.50;;;6.10;83.30;;;;;;5035053;28;20442;-82
2020/12/27 01:25:56;;;;;;;1.53;0.50;;;6.10;83.10;;;;;;5034498;28;20454;-83
2020/12/27 01:28:23;;;;;;;0.80;0.40;;;6.10;83.10;;;;;;5035044;28;20438;-82
2020/12/27 01:30:49;;;;;;;0.77;0.77;;;6.10;83.00;;;;;;5034911;28;20447;-82
2020/12/27 01:33:16;;;;;;;0.60;0.60;;;6.10;83.20;;;;;;5034870;28;20521;-82
2020/12/27 01:35:44;;;;;;;1.00;0.77;;;6.10;83.30;;;;;;5035005;28;20466;-83
2020/12/27 01:38:10;;;;;;;1.33;0.60;;;6.10;83.20;;;;;;5034289;28;20430;-82
2020/12/27 01:40:36;;;;;;;0.40;0.37;;;6.10;83.20;;;;;;5034572;28;20953;-82
2020/12/27 01:43:03;;;;;;;0.77;0.43;;;6.10;83.00;;;;;;5034842;28;20447;-82
2020/12/27 01:45:29;;;;;;;0.53;0.53;;;6.10;83.10;;;;;;5034823;28;20482;-82
2020/12/27 01:47:56;;;;;;;0.40;0.40;;;6.10;82.80;;;;;;5034770;28;20454;-82
2020/12/27 01:50:23;;;;;;;0.57;0.50;;;6.10;82.90;;;;;;5034567;28;20818;-82
2020/12/27 01:52:51;;;;;;;0.77;0.47;;;6.20;82.80;;;;;;5034107;28;20948;-82
2020/12/27 01:55:17;;;;;;;0.50;0.50;;;6.20;82.70;;;;;;5035665;28;20450;-82
2020/12/27 01:58:13;;;;;;;0.40;0.40;;;6.20;83.40;;;;;;5038372;28;20454;-82
2020/12/27 02:00:40;;;;;;;1.33;0.50;;;6.20;82.50;;;;;;5038422;28;20517;-82
2020/12/27 02:03:08;;;;;;;1.27;0.50;;;6.20;82.40;;;;;;5038587;28;20823;-82
2020/12/27 02:05:35;;;;;;;0.80;0.70;;;6.20;81.90;;;;;;5038327;28;20474;-82
2020/12/27 02:08:03;;;;;;;0.60;0.60;;;6.30;82.10;;;;;;5038479;28;20788;-82
2020/12/27 02:10:30;;;;;;;1.23;0.50;;;6.30;81.70;;;;;;5037954;28;20446;-82
2020/12/27 02:12:57;;;;;;;1.67;0.50;;;6.30;81.50;;;;;;5038048;28;20488;-82
2020/12/27 02:15:23;;;;;;;0.40;0.33;;;6.20;81.00;;;;;;5037868;28;20455;-82
2020/12/27 02:17:49;;;;;;;1.90;0.50;;;6.20;81.10;;;;;;5037947;28;20457;-82
2020/12/27 02:20:16;;;;;;;0.93;0.40;;;6.30;81.40;;;;;;5038109;28;20486;-83
2020/12/27 02:22:43;;;;;;;0.40;0.40;;;6.30;81.20;;;;;;5038158;28;20478;-83
2020/12/27 02:25:10;;;;;;;0.67;0.50;;;6.30;80.90;;;;;;5037971;28;20462;-82
2020/12/27 02:27:36;;;;;;;0.43;0.40;;;6.30;80.80;;;;;;5038080;28;20446;-82
2020/12/27 02:30:05;;;;;;;0.40;0.33;;;6.20;80.30;;;;;;5038239;28;20473;-83
2020/12/27 02:32:31;;;;;;;0.40;0.30;;;6.30;80.90;;;;;;5037700;28;20458;-82
2020/12/27 02:34:57;;;;;;;0.87;0.50;;;6.30;80.90;;;;;;5039489;28;20447;-83
2020/12/27 02:37:23;;;;;;;0.40;0.37;;;6.30;81.00;;;;;;5037499;28;20477;-81
2020/12/27 02:39:50;;;;;;;0.70;0.30;;;6.30;80.90;;;;;;5036600;28;20489;-82
2020/12/27 02:42:17;;;;;;;0.40;0.33;;;6.30;80.80;;;;;;5036810;28;20447;-82
2020/12/27 02:45:08;;;;;;;0.50;0.50;;;6.30;80.90;;;;;;5036660;28;20451;-82
2020/12/27 02:47:33;;;;;;;1.27;0.30;;;6.40;80.60;;;;;;5036431;28;20514;-81
2020/12/27 02:49:59;;;;;;;1.80;0.30;;;6.30;80.40;;;;;;5036480;28;20508;-82
2020/12/27 02:52:25;;;;;;;0.70;0.40;;;6.30;80.10;;;;;;5036471;28;20450;-82
2020/12/27 02:54:51;;;;;;;2.83;0.30;;;6.30;80.20;;;;;;5036289;28;20450;-82
2020/12/27 02:57:18;;;;;;;0.83;0.33;;;6.40;80.30;;;;;;5036547;28;20467;-82
2020/12/27 02:59:45;;;;;;;2.77;0.40;;;6.40;79.90;;;;;;5036629;28;20482;-82
2020/12/27 03:02:11;;;;;;;0.80;0.60;;;6.40;80.00;;;;;;5036358;28;20431;-82
2020/12/27 03:04:37;;;;;;;0.50;0.50;;;6.40;79.70;;;;;;5036315;28;20859;-82
2020/12/27 03:07:03;;;;;;;0.60;0.40;;;6.40;79.30;;;;;;5036002;28;20475;-82
2020/12/27 03:09:29;;;;;;;7.33;0.67;;;6.40;79.40;;;;;;5036396;28;20795;-82
2020/12/27 03:11:56;;;;;;;0.80;0.60;;;6.30;79.70;;;;;;5036010;28;20454;-82
2020/12/27 03:14:23;;;;;;;0.80;0.40;;;6.30;79.60;;;;;;5035963;28;20462;-82
2020/12/27 03:16:49;;;;;;;1.37;0.70;;;6.30;80.00;;;;;;5036165;28;20483;-82
2020/12/27 03:19:15;;;;;;;0.40;0.30;;;6.30;80.10;;;;;;5036231;28;20844;-82
2020/12/27 03:21:41;;;;;;;0.87;0.50;;;6.40;80.00;;;;;;5036123;28;20458;-82
2020/12/27 03:24:07;;;;;;;0.67;0.50;;;6.30;80.00;;;;;;5036105;28;20478;-82
2020/12/27 03:26:34;;;;;;;0.60;0.50;;;6.30;80.00;;;;;;5035718;28;20864;-82
2020/12/27 03:29:00;;;;;;;1.03;0.70;;;6.30;80.00;;;;;;5035650;28;20443;-82
2020/12/27 03:31:27;;;;;;;0.40;0.30;;;6.30;80.40;;;;;;5036143;28;20442;-82
2020/12/27 03:33:53;;;;;;;0.50;0.50;;;6.30;80.20;;;;;;5035766;28;20458;-82
2020/12/27 03:36:19;;;;;;;0.40;0.30;;;6.30;80.50;;;;;;5035454;28;20984;-82
2020/12/27 03:38:46;;;;;;;0.90;0.60;;;6.40;80.40;;;;;;5035603;28;20540;-82
2020/12/27 03:41:12;;;;;;;0.40;0.30;;;6.40;80.20;;;;;;5035716;28;20449;-82
2020/12/27 03:43:38;;;;;;;0.50;0.50;;;6.40;79.70;;;;;;5035630;28;20450;-81
2020/12/27 03:46:04;;;;;;;0.63;0.40;;;6.40;80.20;;;;;;5035161;28;20459;-82
2020/12/27 03:48:31;;;;;;;0.90;0.40;;;6.40;80.40;;;;;;5035596;28;20451;-82
2020/12/27 03:50:58;;;;;;;1.80;0.30;;;6.30;80.30;;;;;;5035232;28;20795;-82
2020/12/27 03:53:24;;;;;;;0.60;0.50;;;6.30;80.00;;;;;;5035389;28;20450;-83
2020/12/27 03:55:50;;;;;;;0.80;0.40;;;6.40;80.30;;;;;;5035435;28;20470;-82
2020/12/27 03:58:17;;;;;;;0.40;0.30;;;6.30;80.30;;;;;;5034782;28;20447;-82
2020/12/27 04:00:43;;;;;;;0.40;0.30;;;6.30;80.40;;;;;;5036039;28;20462;-82
2020/12/27 04:03:09;;;;;;;0.40;0.30;;;6.30;80.70;;;;;;5035056;28;20446;-82
2020/12/27 04:05:36;;;;;;;4.30;0.50;;;6.30;80.70;;;;;;5034910;28;20873;-83
2020/12/27 04:08:02;;;;;;;0.60;0.40;;;6.20;80.90;;;;;;5035008;28;20451;-82
2020/12/27 04:10:28;;;;;;;0.50;0.30;;;6.20;80.90;;;;;;5035254;28;20950;-82
2020/12/27 04:12:55;;;;;;;0.97;0.30;;;6.30;81.20;;;;;;5035104;28;20446;-82
2020/12/27 04:15:21;;;;;;;2.67;0.40;;;6.30;81.00;;;;;;5034699;28;20467;-83
2020/12/27 04:17:47;;;;;;;0.40;0.40;;;6.20;80.90;;;;;;5034535;28;20458;-82
2020/12/27 04:20:13;;;;;;;0.90;0.50;;;6.30;80.80;;;;;;5034174;28;21034;-82
2020/12/27 04:22:40;;;;;;;0.80;0.40;;;6.30;80.90;;;;;;5034774;28;20509;-82
2020/12/27 04:25:08;;;;;;;0.60;0.30;;;6.30;80.90;;;;;;5034889;28;20454;-81
2020/12/27 04:27:34;;;;;;;0.53;0.40;;;6.30;80.70;;;;;;5035103;28;20489;-82
2020/12/27 04:30:00;;;;;;;0.30;0.30;;;6.30;80.60;;;;;;5035443;28;20846;-82
2020/12/27 04:32:26;;;;;;;0.40;0.30;;;6.30;80.50;;;;;;5034912;28;20443;-82
2020/12/27 04:34:53;;;;;;;0.50;0.30;;;6.30;80.20;;;;;;5034830;28;20454;-82
2020/12/27 04:37:19;;;;;;;0.60;0.30;;;6.40;80.10;;;;;;5034838;28;20833;-82
2020/12/27 04:39:46;;;;;;;0.53;0.47;;;6.40;80.10;;;;;;5034634;28;20490;-82
2020/12/27 04:42:13;;;;;;;0.40;0.30;;;6.40;79.90;;;;;;5034485;28;20465;-82
2020/12/27 04:44:39;;;;;;;0.40;0.30;;;6.40;80.20;;;;;;5034295;28;20446;-82
2020/12/27 04:47:06;;;;;;;1.47;0.40;;;6.40;80.10;;;;;;5034449;28;20484;-82
2020/12/27 04:49:33;;;;;;;0.40;0.27;;;6.40;80.20;;;;;;5034205;28;20988;-82
2020/12/27 04:52:02;;;;;;;0.40;0.30;;;6.40;79.90;;;;;;5034392;28;20454;-82
2020/12/27 04:54:29;;;;;;;2.30;0.40;;;6.50;79.70;;;;;;5034414;28;20453;-82
2020/12/27 04:56:57;;;;;;;0.50;0.40;;;6.40;80.50;;;;;;5034283;28;20594;-83
2020/12/27 04:59:23;;;;;;;0.30;0.20;;;6.40;79.90;;;;;;5034429;28;20474;-82
2020/12/27 05:01:50;;;;;;;1.33;0.30;;;6.40;79.90;;;;;;5034396;28;20451;-82
2020/12/27 05:04:22;;;;;;;0.70;0.30;;;6.40;79.90;;;;;;5034369;28;20454;-82
2020/12/27 05:06:48;;;;;;;1.60;0.40;;;6.40;80.30;;;;;;5034124;28;20477;-82
2020/12/27 05:09:15;;;;;;;0.40;0.30;;;6.40;80.60;;;;;;5034392;28;20451;-82
2020/12/27 05:11:43;;;;;;;0.50;0.30;;;6.40;80.20;;;;;;5034069;28;20454;-82
2020/12/27 05:14:10;;;;;;;1.07;0.40;;;6.40;80.40;;;;;;5033894;28;20936;-82
2020/12/27 05:16:36;;;;;;;3.07;0.50;;;6.40;80.80;;;;;;5033887;28;20466;-82
2020/12/27 05:19:03;;;;;;;0.30;0.30;;;6.40;80.70;;;;;;5034026;28;20483;-82
2020/12/27 05:21:37;;;;;;;0.40;0.30;;;6.50;80.90;;;;;;5034461;28;20454;-82
2020/12/27 05:24:04;;;;;;;0.60;0.30;;;6.50;81.30;;;;;;5034636;28;20446;-82
2020/12/27 05:26:31;;;;;;;0.53;0.30;;;6.50;81.00;;;;;;5034109;28;20475;-82
2020/12/27 05:28:58;;;;;;;0.40;0.30;;;6.60;80.70;;;;;;5033671;28;20970;-82
2020/12/27 05:31:35;;;;;;;0.40;0.20;;;6.60;81.40;;;;;;5036610;28;20512;-83
2020/12/27 05:34:01;;;;;;;0.40;0.30;;;6.60;80.70;;;;;;5038193;28;20443;-82
2020/12/27 05:36:27;;;;;;;0.33;0.30;;;6.60;80.90;;;;;;5038144;28;20528;-82
2020/12/27 05:38:55;;;;;;;0.30;0.30;;;6.60;81.20;;;;;;5037785;28;20478;-82
2020/12/27 05:41:25;;;;;;;0.40;0.20;;;6.60;81.10;;;;;;5037885;28;20506;-82
2020/12/27 05:43:59;;;;;;;0.40;0.30;;;6.70;80.90;;;;;;5037429;28;20912;-82
2020/12/27 05:46:26;;;;;;;0.40;0.30;;;6.70;80.90;;;;;;5037737;28;20469;-82
2020/12/27 05:48:56;;;;;;;0.70;0.30;;;6.70;80.90;;;;;;5037539;28;20438;-82
2020/12/27 05:51:22;;;;;;;1.90;0.30;;;6.70;81.00;;;;;;5037945;28;20446;-82
2020/12/27 05:53:50;;;;;;;0.80;0.73;;;6.70;81.20;;;;;;5037317;28;20435;-82
2020/12/27 05:56:19;;;;;;;2.93;0.20;;;6.70;81.20;;;;;;5037627;28;20473;-82
2020/12/27 05:58:46;;;;;;;0.30;0.20;;;6.70;81.60;;;;;;5037310;28;20435;-82
2020/12/27 06:01:21;;;;;;;1.17;0.20;;;6.70;81.70;;;;;;5037195;28;20453;-82
2020/12/27 06:03:59;;;;;;;0.47;0.30;;;6.70;81.40;;;;;;5037354;28;20430;-82
2020/12/27 06:07:04;;;;;;;1.63;0.27;;;6.70;81.50;;;;;;5037204;28;20980;-82
2020/12/27 06:09:53;;;;;;;0.40;0.20;;;6.70;81.50;;;;;;5037217;28;20900;-83
2020/12/27 06:12:21;;;;;;;0.30;0.20;;;6.80;81.70;;;;;;5037016;28;20435;-82
2020/12/27 06:15:05;;;;;;;0.50;0.30;;;6.80;81.30;;;;;;5036974;28;20508;-82
2020/12/27 06:17:48;;;;;;;0.40;0.30;;;6.90;81.50;;;;;;5037390;28;20454;-82
2020/12/27 06:20:18;;;;;;;0.40;0.30;;;6.80;81.90;;;;;;5037556;28;20469;-82
2020/12/27 06:22:47;;;;;;;1.90;0.20;;;6.80;81.00;;;;;;5037721;28;20450;-83
2020/12/27 06:25:14;;;;;;;0.57;0.30;;;6.80;81.10;;;;;;5037533;28;20967;-82
2020/12/27 06:27:41;;;;;;;1.93;0.27;;;6.80;81.60;;;;;;5037998;28;20458;-82
2020/12/27 06:30:08;;;;;;;0.43;0.30;;;6.80;81.80;;;;;;5037628;28;20434;-83
2020/12/27 06:32:40;;;;;;;0.30;0.20;;;6.90;81.90;;;;;;5037813;28;20461;-83
2020/12/27 06:35:07;;;;;;;0.40;0.30;;;6.90;81.40;;;;;;5037805;28;20450;-83
2020/12/27 06:37:42;;;;;;;1.63;0.50;;;6.90;81.60;;;;;;5037492;28;20443;-83
2020/12/27 06:40:08;;;;;;;0.40;0.40;;;6.90;81.70;;;;;;5037205;28;20829;-84
2020/12/27 06:42:35;;;;;;;0.40;0.30;;;6.90;81.80;;;;;;5036765;28;20454;-83
2020/12/27 06:45:01;;;;;;;1.43;0.40;;;6.90;81.70;;;;;;5038174;28;20451;-84
2020/12/27 06:47:46;;;;;;;0.40;0.30;;;6.90;81.70;;;;;;5038606;28;20489;-82
2020/12/27 06:50:17;;;;;;;0.30;0.23;;;7.00;81.50;;;;;;5038598;28;20446;-82
2020/12/27 06:52:44;;;;;;;0.30;0.20;;;7.00;81.50;;;;;;5039933;28;20975;-84
2020/12/27 06:55:10;;;;;;;0.30;0.30;;;7.00;81.40;;;;;;5039014;28;20442;-83
2020/12/27 06:57:39;;;;;;;0.47;0.30;;;7.10;81.60;;;;;;5039438;28;20447;-83
2020/12/27 07:00:27;;;;;;;0.40;0.30;;;7.10;81.30;;;;;;5038709;28;20514;-83
2020/12/27 07:03:07;;;;;;;0.47;0.27;;;7.20;81.20;;;;;;5032442;28;20446;-83
2020/12/27 07:05:35;;;;;;;0.60;0.20;;;7.10;81.00;;;;;;5038658;28;20458;-84
2020/12/27 07:08:03;;;;;;;1.27;0.50;;;7.10;80.90;;;;;;5037957;28;20968;-83
2020/12/27 07:10:31;;;;;;;1.23;0.30;;;7.10;81.00;;;;;;5037707;28;20442;-83
2020/12/27 07:13:09;;;;;;;0.90;0.20;;;7.20;80.90;;;;;;5037626;28;20443;-83
2020/12/27 07:15:36;;;;;;;0.60;0.30;;;7.10;80.70;;;;;;5037244;28;20847;-83
2020/12/27 07:18:08;;;;;;;4.00;0.50;;;7.20;80.60;;;;;;5037571;28;20469;-83
2020/12/27 07:20:35;;;;;;;4.43;0.60;;;7.20;80.20;;;;;;5036996;28;20474;-83
2020/12/27 07:23:10;;;;;;;0.60;0.53;;;7.10;80.40;;;;;;5037461;28;20446;-84
2020/12/27 07:25:41;;;;;;;0.60;0.40;;;7.20;80.40;;;;;;5037221;28;20455;-83
2020/12/27 07:28:08;;;;;;;0.87;0.60;;;7.20;80.20;;;;;;5037220;28;20427;-83
2020/12/27 07:30:35;;;;;;;0.40;0.37;;;7.20;80.20;;;;;;5037105;28;20454;-83
2020/12/27 07:33:07;;;;;;;0.30;0.20;;;7.20;80.40;;;;;;5036993;28;20517;-83
2020/12/27 07:35:35;;;;;;;0.73;0.40;;;7.10;80.40;;;;;;5037248;28;20481;-83
2020/12/27 07:38:03;;;;;;;0.40;0.30;;;7.20;80.30;;;;;;5036488;28;20477;-83
2020/12/27 07:40:33;;;;;;;0.60;0.47;;;7.20;80.10;;;;;;5036599;28;20891;-84
2020/12/27 07:43:01;;;;;;;1.40;0.40;;;7.20;80.00;;;;;;5036963;28;20454;-83
2020/12/27 07:45:27;;;;;;;0.50;0.43;;;7.10;79.50;;;;;;5036581;28;20446;-84
2020/12/27 07:47:54;;;;;;;1.13;0.50;;;7.10;79.90;;;;;;5036539;28;20479;-84
2020/12/27 07:50:22;;;;;;;0.97;0.40;;;7.10;80.50;;;;;;5036170;28;20443;-83
2020/12/27 07:52:53;;;;;;;1.07;0.30;;;7.10;80.60;;;;;;5035683;28;20459;-84
2020/12/27 07:55:32;;;;;;;3.50;0.60;;;7.10;80.40;;;;;;5035972;28;20459;-83
2020/12/27 07:58:00;;;;;;;1.90;0.73;;;7.10;80.20;;;;;;5036172;28;20450;-83
2020/12/27 08:00:28;;;;;;;0.60;0.50;;;7.10;80.40;;;;;;5036078;28;20513;-83
2020/12/27 08:02:55;;;;;;;0.80;0.50;;;7.10;80.20;;;;;;5035561;28;20455;-83
2020/12/27 08:05:21;;;;;;;0.40;0.40;;;7.10;80.20;;;;;;5035917;28;20458;-83
2020/12/27 08:07:48;;;;;;;0.40;0.30;;;7.10;80.20;;;;;;5035674;28;20439;-83
2020/12/27 08:10:17;;;;;;;0.40;0.30;;;7.10;80.10;;;;;;5036313;28;20442;-83
2020/12/27 08:12:52;;;;;;;0.47;0.43;;;7.10;80.40;;;;;;5038173;28;20449;-82
2020/12/27 08:15:19;;;;;;;0.40;0.37;;;7.10;80.30;;;;;;5038792;28;20473;-82
2020/12/27 08:17:59;;;;;;;0.57;0.47;;;7.10;80.00;;;;;;5038170;28;20451;-84
2020/12/27 08:20:27;;;;;;;0.40;0.30;;;7.10;80.10;;;;;;5037428;28;20466;-83
2020/12/27 08:23:07;;;;;;;0.40;0.30;;;7.10;80.10;;;;;;5037430;28;20453;-83
2020/12/27 08:25:34;;;;;;;0.30;0.20;;;7.10;79.90;;;;;;5038272;28;20473;-83
2020/12/27 08:28:03;;;;;;;0.50;0.30;;;7.10;80.10;;;;;;5036795;28;20446;-83
2020/12/27 08:30:30;;;;;;;2.20;0.30;;;7.10;79.80;;;;;;5036438;28;20451;-83
2020/12/27 08:33:07;;;;;;;4.30;0.40;;;7.10;79.40;;;;;;5036204;28;20431;-82
2020/12/27 08:35:33;;;;;;;0.40;0.30;;;7.20;79.40;;;;;;5036525;28;20477;-84
2020/12/27 08:38:25;;;;;;;0.40;0.30;;;7.20;79.70;;;;;;5035608;28;20443;-83
2020/12/27 08:40:58;;;;;;;0.97;0.30;;;7.30;79.20;;;;;;5030568;28;20474;-83
2020/12/27 08:43:38;;;;;;;1.37;0.30;;;7.30;79.20;;;;;;5035596;28;20430;-83
2020/12/27 08:46:09;;;;;;;0.30;0.30;;;7.30;78.90;;;;;;5035793;28;20474;-83
2020/12/27 08:48:42;;;;;;;0.30;0.20;;;7.30;78.60;;;;;;5035942;28;20472;-84
2020/12/27 08:51:11;;;;;;;0.57;0.30;;;7.30;78.50;;;;;;5035576;28;20442;-84
2020/12/27 08:53:42;;;;;;;0.30;0.30;;;7.30;78.80;;;;;;5035590;28;20431;-84
2020/12/27 08:56:09;;;;;;;0.40;0.20;;;7.30;78.90;;;;;;5035529;28;20459;-83
2020/12/27 08:58:36;;;;;;;5.70;0.33;;;7.30;78.70;;;;;;5035830;28;20473;-83
2020/12/27 09:01:04;;;;;;;0.80;0.30;;;7.30;79.20;;;;;;5035226;28;21020;-84
2020/12/27 09:03:30;;;;;;;0.40;0.30;;;7.40;79.70;;;;;;5034971;28;21026;-84
2020/12/27 09:05:56;;;;;;;1.90;0.50;;;7.30;80.30;;;;;;5034463;28;20459;-83
2020/12/27 09:08:22;;;;;;;0.53;0.30;;;7.30;80.20;;;;;;5035156;28;20427;-84
2020/12/27 09:10:48;;;;;;;0.43;0.40;;;7.30;80.70;;;;;;5035639;28;20455;-83
2020/12/27 09:13:16;;;;;;;1.77;0.30;;;7.20;80.60;;;;;;5036715;28;20473;-83
2020/12/27 09:15:46;;;;;;;0.40;0.30;;;7.20;81.00;;;;;;5036144;28;20505;-82
2020/12/27 09:18:14;;;;;;;0.50;0.30;;;7.20;81.60;;;;;;5035521;28;20434;-83
2020/12/27 09:20:42;;;;;;;0.40;0.30;;;7.10;82.10;;;;;;5035126;28;20482;-83
2020/12/27 09:23:12;;;;;;;0.60;0.30;;;7.10;81.80;;;;;;5035430;28;20431;-85
2020/12/27 09:25:39;;;;;;;0.50;0.30;;;7.00;81.30;;;;;;5034349;28;20520;-84
2020/12/27 09:28:13;;;;;;;0.30;0.30;;;7.00;81.60;;;;;;5034448;28;20932;-84
2020/12/27 09:30:40;;;;;;;0.40;0.40;;;7.00;81.80;;;;;;5034539;28;20435;-83
2020/12/27 09:33:07;;;;;;;1.47;0.50;;;7.00;81.90;;;;;;5034844;28;20508;-83
2020/12/27 09:35:34;;;;;;;0.67;0.30;;;7.10;82.00;;;;;;5035261;28;20466;-83
2020/12/27 09:38:01;;;;;;;0.50;0.30;;;7.00;81.90;;;;;;5036211;28;20931;-82
2020/12/27 09:40:27;;;;;;;0.73;0.50;;;7.10;82.10;;;;;;5037528;28;20490;-83
2020/12/27 09:43:03;;;;;;;0.40;0.40;;;7.00;81.80;;;;;;5036181;28;20928;-82
2020/12/27 09:45:30;;;;;;;1.40;0.40;;;7.10;81.70;;;;;;5036166;28;20439;-83
2020/12/27 09:47:57;;;;;;;0.40;0.30;;;7.10;82.00;;;;;;5037424;28;20998;-83
2020/12/27 09:50:32;;;;;;;0.63;0.30;;;7.10;81.90;;;;;;5037198;28;20449;-82
2020/12/27 09:52:59;;;;;;;0.40;0.30;;;7.10;81.60;;;;;;5036403;28;20430;-83
2020/12/27 09:55:26;;;;;;;0.53;0.30;;;7.10;81.70;;;;;;5035246;28;20447;-83
2020/12/27 09:57:52;;;;;;;0.80;0.47;;;7.10;81.60;;;;;;5036213;28;20430;-82
2020/12/27 10:00:19;;;;;;;0.50;0.30;;;7.10;81.60;;;;;;5035860;28;20849;-80
2020/12/27 10:02:45;;;;;;;0.40;0.30;;;7.10;81.50;;;;;;5035865;28;20460;-82
2020/12/27 10:05:12;;;;;;;0.50;0.40;;;7.10;82.00;;;;;;5034846;28;20462;-81
2020/12/27 10:07:39;;;;;;;0.60;0.30;;;7.20;81.30;;;;;;5036163;28;20905;-82
2020/12/27 10:10:08;;;;;;;0.57;0.50;;;7.20;81.60;;;;;;5050980;28;20429;-81
2020/12/27 10:12:34;;;;;;;0.40;0.30;;;7.10;81.60;;;;;;5036480;28;20510;-82
2020/12/27 10:15:01;;;;;;;2.60;0.77;;;7.20;81.50;;;;;;5036299;28;20465;-82
2020/12/27 10:17:27;;;;;;;0.63;0.30;;;7.20;81.70;;;;;;5038086;28;20473;-83
2020/12/27 10:19:53;;;;;;;0.43;0.30;;;7.20;81.90;;;;;;5041029;28;20478;-83
2020/12/27 10:22:20;;;;;;;0.40;0.30;;;7.20;82.50;;;;;;5042126;28;20477;-83
2020/12/27 10:24:47;;;;;;;0.70;0.40;;;7.20;82.30;;;;;;5045724;28;20407;-84
2020/12/27 10:27:13;;;;;;;0.40;0.30;;;7.20;81.90;;;;;;5043397;28;20528;-85
2020/12/27 10:29:40;;;;;;;1.80;0.40;;;7.10;82.10;;;;;;5042547;28;20446;-85
2020/12/27 10:32:07;;;;;;;0.70;0.40;;;7.10;82.70;;;;;;5043809;28;20917;-85
2020/12/27 10:34:34;;;;;;;0.70;0.50;;;7.10;83.10;;;;;;5042097;28;20921;-85
2020/12/27 10:37:01;;;;;;;0.50;0.30;;;7.20;82.40;;;;;;5043062;28;20467;-85
2020/12/27 10:39:28;;;;;;;0.53;0.30;;;7.10;82.20;;;;;;5042094;28;20474;-83
2020/12/27 10:41:55;;;;;;;1.03;0.37;;;7.20;82.40;;;;;;5041115;28;20462;-81
2020/12/27 10:44:22;;;;;;;0.50;0.30;;;7.10;82.40;;;;;;5040241;28;20477;-80
2020/12/27 10:46:50;;;;;;;2.00;0.50;;;7.20;82.50;;;;;;5038695;28;20471;-80
2020/12/27 10:49:17;;;;;;;1.70;0.40;;;7.20;81.80;;;;;;5038483;28;20504;-80
2020/12/27 10:51:43;;;;;;;1.80;0.50;;;7.20;81.30;;;;;;5038074;28;20458;-79
2020/12/27 10:54:12;;;;;;;1.07;0.40;;;7.30;81.10;;;;;;5038545;28;20450;-79
2020/12/27 10:56:39;;;;;;;0.50;0.50;;;7.30;80.80;;;;;;5038492;28;20473;-79
2020/12/27 10:59:06;;;;;;;0.50;0.40;;;7.30;80.60;;;;;;5042482;28;20480;-79
2020/12/27 11:01:33;;;;;;;2.00;0.47;;;7.30;80.50;;;;;;5042202;28;20436;-79
2020/12/27 11:03:59;;;;;;;0.60;0.30;;;7.30;80.80;;;;;;5040493;28;20446;-79
2020/12/27 11:06:30;;;;;;;1.60;0.50;;;7.30;80.80;;;;;;5042015;28;20475;-79
2020/12/27 11:08:56;;;;;;;0.40;0.40;;;7.30;80.60;;;;;;5042127;28;20775;-79
2020/12/27 11:11:23;;;;;;;0.90;0.60;;;7.40;80.60;;;;;;5040173;28;20859;-79
2020/12/27 11:13:49;;;;;;;1.53;0.57;;;7.40;81.30;;;;;;5038852;28;20454;-78
2020/12/27 11:16:16;;;;;;;0.60;0.30;;;7.40;80.80;;;;;;5038795;28;20862;-79
2020/12/27 11:18:43;;;;;;;0.50;0.50;;;7.40;80.80;;;;;;5040714;28;20455;-79
2020/12/27 11:21:09;;;;;;;1.27;0.50;;;7.40;80.80;;;;;;5041145;28;20483;-79
2020/12/27 11:23:35;;;;;;;0.40;0.40;;;7.30;80.70;;;;;;5039417;28;20474;-79
2020/12/27 11:26:02;;;;;;;0.60;0.40;;;7.30;81.20;;;;;;5037028;28;21006;-78
2020/12/27 11:28:28;;;;;;;0.40;0.40;;;7.30;81.20;;;;;;5036663;28;20451;-78
2020/12/27 11:30:54;;;;;;;0.57;0.40;;;7.30;81.30;;;;;;5037687;28;20438;-79
2020/12/27 11:33:22;;;;;;;1.00;0.50;;;7.30;81.50;;;;;;5037287;28;20450;-79
2020/12/27 11:35:48;;;;;;;3.87;0.50;;;7.30;81.90;;;;;;5037718;28;20470;-79
2020/12/27 11:38:14;;;;;;;0.87;0.50;;;7.30;81.40;;;;;;5036993;28;20477;-81
2020/12/27 11:40:40;;;;;;;1.33;0.40;;;7.20;82.40;;;;;;5037381;28;20490;-81
2020/12/27 11:43:07;;;;;;;2.00;0.50;;;7.20;84.30;;;;;;5037950;28;20450;-81
2020/12/27 11:45:33;;;;;;;0.60;0.40;;;7.20;83.50;;;;;;5037315;28;20474;-82
2020/12/27 11:47:59;;;;;;;0.67;0.40;;;7.20;84.00;;;;;;5037793;28;20458;-82
2020/12/27 11:50:26;;;;;;;2.17;0.50;;;7.20;83.60;;;;;;5038337;28;20474;-82
2020/12/27 11:52:52;;;;;;;0.50;0.30;;;7.20;84.30;;;;;;5039158;28;20435;-82
2020/12/27 11:55:18;;;;;;;0.60;0.47;;;7.10;84.60;;;;;;5037509;28;20445;-83
2020/12/27 11:57:45;;;;;;;0.60;0.50;;;7.10;84.70;;;;;;5036958;28;20447;-83
2020/12/27 12:00:13;;;;;;;0.40;0.30;;;7.00;84.90;;;;;;5037301;28;20483;-83
2020/12/27 12:02:39;;;;;;;2.70;0.60;;;7.00;85.30;;;;;;5038800;28;20478;-83
2020/12/27 12:05:05;;;;;;;0.50;0.30;;;7.00;85.50;;;;;;5039535;28;20504;-83
2020/12/27 12:07:32;;;;;;;0.93;0.50;;;6.90;85.00;;;;;;5041666;28;20517;-83
2020/12/27 12:09:58;;;;;;;0.40;0.30;;;6.90;85.70;;;;;;5038883;28;20472;-83
2020/12/27 12:12:24;;;;;;;0.40;0.30;;;6.80;86.50;;;;;;5038365;28;20855;-83
2020/12/27 12:14:53;;;;;;;1.10;0.60;;;6.80;86.90;;;;;;5037626;28;20493;-84
2020/12/27 12:17:19;;;;;;;0.60;0.50;;;6.80;86.90;;;;;;5037508;28;20481;-83
2020/12/27 12:19:45;;;;;;;1.27;0.50;;;6.80;87.20;;;;;;5036592;28;20497;-84
2020/12/27 12:22:11;;;;;;;1.03;0.70;;;6.70;87.30;;;;;;5037530;28;20450;-84
2020/12/27 12:24:38;;;;;;;0.97;0.40;;;6.70;87.50;;;;;;5036929;28;20434;-84
2020/12/27 12:27:05;;;;;;;0.97;0.40;;;6.70;87.80;;;;;;5035522;28;20465;-84
2020/12/27 12:29:32;;;;;;;1.63;0.50;;;6.70;87.80;;;;;;5037475;28;20431;-84
2020/12/27 12:31:58;;;;;;;0.60;0.60;;;6.70;87.80;;;;;;5041833;28;20442;-84
2020/12/27 12:34:24;;;;;;;0.60;0.50;;;6.70;88.20;;;;;;5042821;28;20945;-85
2020/12/27 12:36:50;;;;;;;4.10;0.67;;;6.70;88.00;;;;;;5044197;28;20466;-85
2020/12/27 12:39:17;;;;;;;0.40;0.30;;;6.70;88.80;;;;;;5042236;28;20465;-85
2020/12/27 12:41:44;;;;;;;1.73;0.50;;;6.80;88.50;;;;;;5041853;28;20442;-85
2020/12/27 12:44:10;;;;;;;1.03;0.50;;;6.80;88.70;;;;;;5040369;28;20446;-84
2020/12/27 12:46:36;;;;;;;0.80;0.30;;;6.80;89.00;;;;;;5039812;28;20470;-84
2020/12/27 12:49:02;;;;;;;0.47;0.30;;;6.80;89.00;;;;;;5036630;28;20454;-84
2020/12/27 12:51:29;;;;;;;0.40;0.40;;;6.70;88.30;;;;;;5038797;28;20455;-84
2020/12/27 12:53:55;;;;;;;1.17;0.40;;;6.70;88.90;;;;;;5041511;28;20453;-85
2020/12/27 12:56:21;;;;;;;0.50;0.40;;;6.70;88.90;;;;;;5041613;28;20825;-85
2020/12/27 12:58:48;;;;;;;4.13;0.50;;;6.70;89.50;;;;;;5036683;28;20456;-85
2020/12/27 13:01:14;;;;;;;1.43;0.70;;;6.70;89.30;;;;;;5037418;28;20486;-84